Time;durP1;ratioP1;P1;durP2;ratioP2;P2;SDS_P1;SDS_P2;PMS_P1;PMS_P2;Temp;Humidity;BMP_temperature;BMP_pressure;BME280_temperature;BME280_humidity;BME280_pressure;Samples;Min_cycle;Max_cycle;Signal;HPM_P1;HPM_P2
2022/05/16 00:00:37;;;;;;;5.40;1.80;;;;;;;15.66;58.38;96226.84;5029489;28;20443;-74
2022/05/16 00:03:05;;;;;;;5.00;1.80;;;;;;;15.68;58.79;96224.81;5045243;28;20037;-74
2022/05/16 00:05:32;;;;;;;5.67;1.97;;;;;;;15.69;59.61;96230.94;5039023;28;20033;-74
2022/05/16 00:07:57;;;;;;;4.17;1.93;;;;;;;15.66;59.46;96231.28;5041603;28;20029;-74
2022/05/16 00:10:24;;;;;;;7.10;2.03;;;;;;;15.64;59.79;96233.31;5024230;28;20036;-74
2022/05/16 00:12:51;;;;;;;5.63;1.77;;;;;;;15.57;59.20;96235.91;5028863;28;20037;-74
2022/05/16 00:15:19;;;;;;;5.53;1.90;;;;;;;15.51;60.22;96236.66;5030570;28;20144;-74
2022/05/16 00:17:46;;;;;;;4.17;1.87;;;;;;;15.54;59.90;96233.66;5037701;28;20040;-74
2022/05/16 00:20:13;;;;;;;5.80;1.97;;;;;;;15.51;60.21;96234.84;5030018;28;20049;-74
2022/05/16 00:22:39;;;;;;;4.57;1.67;;;;;;;15.43;61.50;96234.97;5033774;28;20078;-75
2022/05/16 00:25:08;;;;;;;3.47;1.77;;;;;;;15.48;61.30;96234.41;5037857;28;20109;-75
2022/05/16 00:27:34;;;;;;;4.83;1.70;;;;;;;15.30;62.27;96238.31;5019871;28;20369;-75
2022/05/16 00:30:04;;;;;;;4.67;1.70;;;;;;;15.31;62.38;96245.25;5042227;28;20045;-74
2022/05/16 00:32:29;;;;;;;9.20;2.30;;;;;;;15.26;63.01;96245.00;5028044;28;20044;-75
2022/05/16 00:34:55;;;;;;;4.20;1.90;;;;;;;15.15;63.85;96240.19;5047867;28;20050;-75
2022/05/16 00:37:21;;;;;;;4.87;1.93;;;;;;;15.07;64.82;96249.06;5036417;28;20057;-74
2022/05/16 00:39:46;;;;;;;3.87;1.70;;;;;;;15.07;65.28;96237.66;5020021;28;20034;-75
2022/05/16 00:42:12;;;;;;;4.00;1.83;;;;;;;15.08;66.06;96236.63;5033163;28;20110;-74
2022/05/16 00:44:39;;;;;;;8.07;2.07;;;;;;;15.11;66.64;96233.63;5027451;28;20021;-74
2022/05/16 00:47:06;;;;;;;4.77;1.60;;;;;;;15.06;67.04;96238.69;5038581;28;20057;-74
2022/05/16 00:49:36;;;;;;;5.30;2.30;;;;;;;15.05;67.18;96234.38;5029360;28;20032;-74
2022/05/16 00:52:06;;;;;;;4.77;2.30;;;;;;;14.98;67.46;96228.19;5045431;28;20041;-74
2022/05/16 00:54:57;;;;;;;3.87;1.87;;;;;;;14.93;67.98;96225.28;5026755;28;20049;-74
2022/05/16 00:57:27;;;;;;;5.60;1.90;;;;;;;14.93;69.13;96225.28;5043010;28;20092;-74
2022/05/16 01:00:03;;;;;;;3.67;1.80;;;;;;;14.91;68.85;96222.00;5027632;28;20108;-73
2022/05/16 01:05:15;;;;;;;6.77;2.30;;;;;;;14.76;72.49;96211.44;5039814;28;20032;-74
2022/05/16 01:07:44;;;;;;;6.83;2.50;;;;;;;14.60;73.35;96205.34;5042502;28;20040;-74
2022/05/16 01:10:13;;;;;;;6.53;3.00;;;;;;;14.44;74.84;96205.50;5030977;28;20332;-74
2022/05/16 01:12:44;;;;;;;8.07;2.37;;;;;;;14.27;76.03;96193.50;5024492;28;20033;-76
2022/05/16 01:15:17;;;;;;;6.70;2.97;;;;;;;14.39;76.15;96195.50;5030510;28;20475;-74
2022/05/16 01:17:43;;;;;;;4.18;2.20;;;;;;;14.33;76.10;96188.28;5029204;28;20117;-74
2022/05/16 01:20:10;;;;;;;4.13;2.27;;;;;;;14.32;76.35;96191.13;5021666;28;20061;-74
2022/05/16 01:22:42;;;;;;;6.43;2.50;;;;;;;14.36;76.24;96185.28;5031065;28;20033;-75
2022/05/16 01:25:19;;;;;;;9.75;2.38;;;;;;;14.46;75.22;96186.81;5037965;28;20042;-74
2022/05/16 01:27:51;;;;;;;5.47;2.70;;;;;;;14.49;75.10;96194.41;5047526;28;20416;-74
2022/05/16 01:30:22;;;;;;;4.28;2.42;;;;;;;14.39;76.18;96192.84;5039228;28;20118;-74
2022/05/16 01:32:49;;;;;;;4.67;2.80;;;;;;;14.51;75.85;96187.09;5049439;28;20040;-74
2022/05/16 01:35:20;;;;;;;6.20;2.40;;;;;;;14.53;75.62;96191.22;5034158;28;20447;-74
2022/05/16 01:40:30;;;;;;;5.23;2.60;;;;;;;14.54;76.23;96189.38;5040452;28;20052;-74
2022/05/16 01:42:56;;;;;;;9.23;3.30;;;;;;;14.61;76.16;96200.88;5050773;28;20034;-74
2022/05/16 01:45:22;;;;;;;5.03;2.60;;;;;;;14.43;77.83;96187.19;5043870;28;20010;-74
2022/05/16 01:47:47;;;;;;;4.53;2.80;;;;;;;14.48;77.50;96184.78;5043241;28;20022;-73
2022/05/16 01:50:13;;;;;;;4.13;2.53;;;;;;;14.33;78.91;96177.69;5050938;28;20028;-73
2022/05/16 01:52:39;;;;;;;3.80;2.07;;;;;;;14.32;78.57;96189.28;5040262;28;20045;-74
2022/05/16 01:55:05;;;;;;;8.20;2.43;;;;;;;14.19;80.75;96191.75;5033480;28;20377;-74
2022/05/16 01:57:31;;;;;;;5.77;2.53;;;;;;;14.12;81.62;96186.38;5050008;28;20045;-74
2022/05/16 01:59:57;;;;;;;6.73;2.33;;;;;;;14.22;81.72;96178.19;5042590;28;20044;-74
2022/05/16 02:02:22;;;;;;;5.83;2.83;;;;;;;14.19;82.42;96181.19;5036631;28;20037;-74
2022/05/16 02:04:48;;;;;;;7.33;3.17;;;;;;;14.14;82.59;96178.25;5037938;28;20049;-74
2022/05/16 02:07:14;;;;;;;9.23;2.70;;;;;;;14.22;82.04;96175.53;5036410;28;20033;-74
2022/05/16 02:09:39;;;;;;;4.70;2.60;;;;;;;14.14;83.50;96175.59;5034344;28;20161;-74
2022/05/16 02:12:05;;;;;;;7.37;3.13;;;;;;;14.12;84.05;96169.69;5037566;28;20029;-74
2022/05/16 02:14:31;;;;;;;7.77;3.03;;;;;;;14.18;83.65;96173.41;5029328;28;20028;-74
2022/05/16 02:16:57;;;;;;;5.63;2.33;;;;;;;14.11;83.83;96170.69;5049414;28;20124;-74
2022/05/16 02:19:22;;;;;;;5.33;2.87;;;;;;;14.12;84.66;96164.41;5038147;28;20043;-75
2022/05/16 02:24:38;;;;;;;6.10;2.73;;;;;;;14.43;84.37;96187.19;5043260;28;20034;-74
2022/05/16 02:27:05;;;;;;;6.80;2.63;;;;;;;14.59;82.61;96181.72;5032464;28;20045;-74
2022/05/16 02:29:31;;;;;;;7.17;2.80;;;;;;;14.60;82.18;96186.00;5055123;28;20057;-74
2022/05/16 02:31:57;;;;;;;5.90;2.60;;;;;;;14.56;83.32;96182.09;5039233;28;20144;-75
2022/05/16 02:34:22;;;;;;;6.40;2.40;;;;;;;14.57;83.23;96184.53;5048328;28;20117;-74
2022/05/16 02:36:48;;;;;;;5.77;2.10;;;;;;;14.64;83.03;96178.50;5041082;28;20057;-74
2022/05/16 02:39:16;;;;;;;8.00;2.90;;;;;;;14.44;84.86;96178.25;5037424;28;20416;-74
2022/05/16 02:41:42;;;;;;;5.17;2.40;;;;;;;14.38;85.24;96177.97;5034830;28;20041;-74
2022/05/16 02:44:09;;;;;;;5.77;2.40;;;;;;;14.20;88.60;96176.72;5033164;28;20064;-75
2022/05/16 02:46:34;;;;;;;8.77;2.83;;;;;;;14.01;90.82;96180.72;5035237;28;20030;-74
2022/05/16 02:49:00;;;;;;;5.77;2.60;;;;;;;13.86;91.69;96172.78;5035362;28;20059;-74
2022/05/16 02:51:26;;;;;;;8.00;2.90;;;;;;;13.73;92.25;96175.22;5034834;28;20025;-74
2022/05/16 02:53:52;;;;;;;6.53;3.00;;;;;;;13.64;94.04;96169.19;5036571;28;20336;-74
2022/05/16 02:56:17;;;;;;;4.70;2.37;;;;;;;13.66;93.95;96161.91;5047948;28;20032;-74
2022/05/16 02:58:43;;;;;;;8.93;2.73;;;;;;;13.91;91.91;96162.47;5034725;28;20068;-74
2022/05/16 03:01:11;;;;;;;8.93;2.70;;;;;;;14.19;88.58;96160.03;5050101;28;20693;-74
2022/05/16 03:03:38;;;;;;;6.77;2.60;;;;;;;14.33;87.56;96159.19;5051140;28;20029;-74
2022/05/16 03:06:04;;;;;;;4.93;2.40;;;;;;;14.53;85.58;96161.28;5048730;28;20050;-74
2022/05/16 03:08:30;;;;;;;4.63;2.50;;;;;;;14.74;82.77;96158.66;5037616;28;20040;-75
2022/05/16 03:10:57;;;;;;;7.90;2.40;;;;;;;14.87;81.65;96163.28;5038030;28;20033;-74
2022/05/16 03:13:23;;;;;;;5.80;2.37;;;;;;;14.94;81.48;96166.81;5040989;28;20033;-74
2022/05/16 03:15:50;;;;;;;4.47;2.07;;;;;;;15.10;79.80;96163.13;5041757;28;20048;-74
2022/05/16 03:18:17;;;;;;;7.13;2.30;;;;;;;15.14;80.02;96164.38;5032722;28;20025;-74
2022/05/16 03:20:43;;;;;;;4.70;2.40;;;;;;;15.19;79.93;96169.94;5029220;28;20038;-74
2022/05/16 03:23:08;;;;;;;6.30;2.63;;;;;;;15.09;80.22;96166.78;5030098;28;20025;-74
2022/05/16 03:25:34;;;;;;;5.67;2.57;;;;;;;15.11;79.96;96167.41;5036227;28;20600;-74
2022/05/16 03:28:00;;;;;;;6.80;2.97;;;;;;;15.16;78.98;96157.06;5026578;28;20044;-74
2022/05/16 03:30:26;;;;;;;6.00;2.20;;;;;;;15.18;78.28;96167.47;5042738;28;20053;-74
2022/05/16 03:32:52;;;;;;;4.93;2.60;;;;;;;15.35;76.08;96166.19;5033427;28;20120;-74
2022/05/16 03:35:18;;;;;;;5.20;2.93;;;;;;;15.43;75.15;96173.22;5032424;28;20042;-74
2022/05/16 03:37:43;;;;;;;5.57;2.10;;;;;;;15.46;74.81;96172.81;5036932;28;20475;-76
2022/05/16 03:42:55;;;;;;;3.27;1.97;;;;;;;15.48;75.34;96182.22;5036180;28;20093;-75
2022/05/16 03:45:21;;;;;;;4.43;2.33;;;;;;;15.53;75.08;96182.47;5024086;28;20592;-75
2022/05/16 03:47:47;;;;;;;6.60;2.30;;;;;;;15.74;72.10;96180.81;5035166;28;20379;-74
2022/05/16 03:50:13;;;;;;;6.27;2.43;;;;;;;15.78;71.57;96185.53;5036921;28;20036;-74
2022/05/16 03:52:40;;;;;;;5.43;2.23;;;;;;;15.81;71.87;96181.69;5041749;28;20171;-75
2022/05/16 03:55:08;;;;;;;4.40;2.13;;;;;;;15.90;70.72;96190.31;5035023;28;20044;-75
2022/05/16 03:57:35;;;;;;;5.63;2.63;;;;;;;15.87;73.16;96190.72;5039390;28;20033;-75
2022/05/16 04:00:00;;;;;;;5.27;2.50;;;;;;;15.67;77.58;96191.38;5038005;28;20454;-75
2022/05/16 04:02:26;;;;;;;5.57;2.40;;;;;;;15.51;81.29;96197.72;5045472;28;20180;-75
2022/05/16 04:04:53;;;;;;;5.20;2.90;;;;;;;15.08;84.19;96197.72;5046192;28;20045;-75
2022/05/16 04:07:19;;;;;;;11.97;6.80;;;;;;;15.03;83.47;96199.31;5045315;28;20025;-75
2022/05/16 04:09:45;;;;;;;6.80;4.70;;;;;;;15.13;83.28;96207.78;5035141;28;20100;-75
2022/05/16 04:12:11;;;;;;;8.10;3.57;;;;;;;15.20;81.44;96202.56;5028821;28;20053;-75
2022/05/16 04:14:36;;;;;;;5.83;2.67;;;;;;;15.15;82.86;96203.09;5029340;28;20038;-75
2022/05/16 04:17:02;;;;;;;6.13;2.83;;;;;;;15.14;83.73;96203.28;5035998;28;20037;-75
2022/05/16 04:19:28;;;;;;;5.77;2.80;;;;;;;15.20;83.60;96207.84;5026261;28;20009;-75
2022/05/16 04:21:54;;;;;;;5.37;2.10;;;;;;;15.27;83.41;96208.72;5043233;28;20238;-74
2022/05/16 04:24:19;;;;;;;7.63;2.57;;;;;;;15.32;81.68;96199.22;5026397;28;20050;-75
2022/05/16 04:26:45;;;;;;;5.70;2.70;;;;;;;15.31;81.93;96204.69;5043780;28;20037;-75
2022/05/16 04:29:11;;;;;;;6.83;3.40;;;;;;;15.35;80.58;96197.19;5047346;28;20043;-74
2022/05/16 04:31:36;;;;;;;4.10;2.10;;;;;;;15.40;83.31;96210.69;5040326;28;20025;-75
2022/05/16 04:34:09;;;;;;;7.63;3.00;;;;;;;15.44;81.56;96206.63;5044857;28;20084;-75
2022/05/16 04:36:39;;;;;;;5.22;2.22;;;;;;;15.48;81.45;96210.53;5049884;28;20028;-75
2022/05/16 04:39:05;;;;;;;4.17;2.33;;;;;;;15.52;83.64;96217.09;5041657;28;20109;-74
2022/05/16 04:44:15;;;;;;;4.87;2.20;;;;;;;15.56;82.97;96216.53;5038517;28;20041;-75
2022/05/16 04:46:40;;;;;;;12.43;2.60;;;;;;;15.59;82.48;96225.94;5030500;28;20044;-75
2022/05/16 04:49:06;;;;;;;5.93;2.63;;;;;;;15.60;83.13;96219.63;5028998;28;20076;-75
2022/05/16 04:51:32;;;;;;;6.53;2.90;;;;;;;15.65;83.24;96216.41;5027171;28;20026;-75
2022/05/16 04:53:58;;;;;;;5.43;2.70;;;;;;;15.66;83.81;96226.84;5027056;28;20479;-75
2022/05/16 04:56:24;;;;;;;4.87;2.63;;;;;;;15.66;84.54;96225.97;5034703;28;20043;-75
2022/05/16 04:58:50;;;;;;;6.10;3.03;;;;;;;15.74;83.15;96225.91;5047358;28;20064;-75
2022/05/16 05:01:15;;;;;;;5.20;2.93;;;;;;;15.76;83.29;96222.03;5038425;28;20033;-75
2022/05/16 05:03:42;;;;;;;7.47;2.77;;;;;;;15.78;85.04;96227.97;5034497;28;20072;-75
2022/05/16 05:06:09;;;;;;;5.10;2.73;;;;;;;15.89;84.31;96231.09;5038477;28;20100;-75
2022/05/16 05:08:34;;;;;;;5.47;3.30;;;;;;;15.85;82.00;96228.00;5038863;28;20022;-75
2022/05/16 05:16:29;;;;;;;8.63;2.90;;;;;;;16.03;81.86;96238.16;5038744;28;20021;-75
2022/05/16 05:18:55;;;;;;;7.10;3.50;;;;;;;15.96;81.51;96238.13;5036267;28;20304;-75
2022/05/16 05:21:21;;;;;;;11.03;4.00;;;;;;;16.03;80.62;96232.84;5038098;28;20044;-75
2022/05/16 05:23:47;;;;;;;10.23;3.80;;;;;;;16.12;80.45;96231.69;5019320;28;20029;-75
2022/05/16 05:26:14;;;;;;;5.77;2.80;;;;;;;16.14;78.70;96236.81;5028206;28;20033;-75
2022/05/16 05:28:41;;;;;;;9.07;3.43;;;;;;;16.17;78.19;96228.47;5035930;28;20060;-75
2022/05/16 05:31:14;;;;;;;8.03;2.87;;;;;;;16.26;78.49;96236.06;5043159;28;20025;-75
2022/05/16 05:33:41;;;;;;;7.97;2.77;;;;;;;16.19;79.10;96242.34;5037980;28;20037;-74
2022/05/16 05:36:08;;;;;;;9.13;2.93;;;;;;;16.21;78.50;96245.63;5026292;28;20029;-74
2022/05/16 05:38:36;;;;;;;9.57;2.37;;;;;;;16.27;78.04;96243.00;5035361;28;20044;-75
2022/05/16 05:41:06;;;;;;;6.90;2.67;;;;;;;16.21;77.32;96246.44;5030323;28;20486;-74
2022/05/16 05:43:32;;;;;;;7.07;2.83;;;;;;;16.31;76.42;96247.94;5036333;28;20041;-75
2022/05/16 05:45:58;;;;;;;8.77;2.93;;;;;;;16.31;75.99;96250.59;5034620;28;20025;-75
2022/05/16 05:48:24;;;;;;;6.20;2.73;;;;;;;16.26;77.27;96243.19;5014423;28;20037;-75
2022/05/16 05:50:51;;;;;;;6.17;2.50;;;;;;;16.29;76.81;96249.94;5027194;28;20057;-75
2022/05/16 05:53:16;;;;;;;8.97;3.33;;;;;;;16.32;77.09;96254.88;5037513;28;20081;-75
2022/05/16 05:55:42;;;;;;;8.70;3.33;;;;;;;16.36;77.24;96246.31;5028613;28;20029;-75
2022/05/16 05:58:08;;;;;;;6.77;2.93;;;;;;;16.45;77.23;96249.66;5044591;28;20045;-75
2022/05/16 06:00:34;;;;;;;6.47;2.80;;;;;;;16.49;77.93;96253.53;5045946;28;20061;-75
2022/05/16 06:03:00;;;;;;;7.60;2.90;;;;;;;16.53;77.03;96249.47;5020756;28;20545;-75
2022/05/16 06:05:27;;;;;;;6.17;2.70;;;;;;;16.69;77.02;96256.31;5027432;28;20029;-75
2022/05/16 06:07:53;;;;;;;6.10;2.70;;;;;;;16.68;77.03;96252.03;5036338;28;20548;-75
2022/05/16 06:10:19;;;;;;;8.50;2.93;;;;;;;16.68;77.62;96252.03;5017062;28;20021;-75
2022/05/16 06:12:45;;;;;;;10.90;2.87;;;;;;;16.82;77.98;96256.41;5014226;28;20044;-75
2022/05/16 06:15:12;;;;;;;9.13;2.87;;;;;;;16.90;77.33;96260.72;5037609;28;20606;-75
2022/05/16 06:17:38;;;;;;;10.23;2.70;;;;;;;16.96;79.65;96260.75;5039206;28;20048;-75
2022/05/16 06:20:06;;;;;;;8.13;3.00;;;;;;;16.86;81.67;96259.47;5036023;28;20048;-75
2022/05/16 06:22:34;;;;;;;5.30;2.95;;;;;;;16.76;80.44;96269.66;5024957;28;20041;-75
2022/05/16 06:25:42;;;;;;;7.87;3.13;;;;;;;16.79;79.79;96278.03;5033161;28;20041;-74
2022/05/16 06:28:03;;;;;;;6.50;3.07;;;;;;;16.83;80.50;96273.97;5033031;28;20044;-74
2022/05/16 06:30:29;;;;;;;6.53;2.67;;;;;;;16.81;80.57;96275.19;5044574;28;20025;-74
2022/05/16 06:32:55;;;;;;;8.85;3.53;;;;;;;16.78;81.36;96272.94;5016965;28;20091;-75
2022/05/16 06:35:21;;;;;;;9.85;3.17;;;;;;;16.81;83.32;96277.84;5028045;28;20029;-75
2022/05/16 06:37:47;;;;;;;7.37;2.80;;;;;;;16.80;84.92;96279.69;5029704;28;20037;-75
2022/05/16 06:40:14;;;;;;;7.55;3.17;;;;;;;16.84;85.55;96277.47;5028473;28;20192;-75
2022/05/16 06:42:40;;;;;;;8.02;3.05;;;;;;;16.92;85.98;96274.63;5016099;28;20037;-74
2022/05/16 06:45:07;;;;;;;8.80;3.15;;;;;;;17.05;84.07;96273.88;5043508;28;20040;-74
2022/05/16 06:47:33;;;;;;;7.05;2.85;;;;;;;16.91;85.03;96287.09;5029063;28;20055;-74
2022/05/16 06:49:59;;;;;;;7.78;3.10;;;;;;;16.98;86.31;96281.81;5034331;28;20383;-74
2022/05/16 06:52:24;;;;;;;10.13;3.25;;;;;;;17.05;86.91;96284.50;5037009;28;20037;-74
2022/05/16 06:54:51;;;;;;;11.73;3.05;;;;;;;17.10;86.63;96285.56;5027332;28;20110;-74
2022/05/16 06:57:17;;;;;;;10.50;3.08;;;;;;;17.17;87.51;96291.72;5039299;28;20029;-74
2022/05/16 06:59:43;;;;;;;6.90;3.35;;;;;;;17.10;91.01;96306.81;5040098;28;20082;-75
2022/05/16 07:02:09;;;;;;;8.67;3.77;;;;;;;16.78;98.83;96302.97;5038101;28;20075;-74
2022/05/16 07:04:37;;;;;;;7.20;4.30;;;;;;;16.68;100.00;96305.94;5011781;28;20042;-74
2022/05/16 07:07:08;;;;;;;9.37;4.40;;;;;;;16.84;100.00;96319.97;5036758;28;20037;-74
2022/05/16 07:09:33;;;;;;;7.73;3.57;;;;;;;17.04;100.00;96318.22;5031111;28;20072;-75
2022/05/16 07:11:59;;;;;;;11.30;4.13;;;;;;;17.11;100.00;96321.72;5027562;28;20037;-74
2022/05/16 07:14:25;;;;;;;8.00;3.50;;;;;;;17.20;100.00;96325.84;5021318;28;20060;-75
2022/05/16 07:16:51;;;;;;;8.37;3.50;;;;;;;17.14;100.00;96325.84;5043109;28;20048;-74
2022/05/16 07:19:17;;;;;;;6.55;3.50;;;;;;;17.20;100.00;96325.00;5044376;28;20029;-75
2022/05/16 07:21:42;;;;;;;5.23;3.03;;;;;;;17.41;100.00;96340.03;5043195;28;20501;-75
2022/05/16 07:24:08;;;;;;;5.90;3.47;;;;;;;17.50;100.00;96353.97;5037251;28;20038;-75
2022/05/16 07:29:19;;;;;;;10.13;3.20;;;;;;;17.59;100.00;96366.88;5029087;28;20040;-75
2022/05/16 07:31:46;;;;;;;5.60;2.78;;;;;;;17.57;100.00;96368.09;5031902;28;20041;-74
2022/05/16 07:34:12;;;;;;;5.45;2.63;;;;;;;17.59;100.00;96366.88;5044784;28;20044;-75
2022/05/16 07:36:38;;;;;;;5.43;2.47;;;;;;;17.55;100.00;96360.31;5042164;28;20031;-74
2022/05/16 07:39:04;;;;;;;4.32;2.42;;;;;;;17.53;100.00;96367.66;5022006;28;20034;-75
2022/05/16 07:41:31;;;;;;;4.88;2.17;;;;;;;17.63;100.00;96378.75;5031276;28;20086;-74
2022/05/16 07:43:58;;;;;;;5.82;2.47;;;;;;;17.75;100.00;96375.53;5042555;28;20017;-74
2022/05/16 07:46:24;;;;;;;5.20;2.53;;;;;;;17.75;100.00;96384.31;5039056;28;20508;-75
2022/05/16 07:48:50;;;;;;;9.95;3.47;;;;;;;17.69;100.00;96377.13;5036013;28;20041;-75
2022/05/16 07:51:16;;;;;;;8.85;3.70;;;;;;;17.19;100.00;96369.38;5028399;28;20025;-75
2022/05/16 07:53:41;;;;;;;6.72;3.22;;;;;;;17.16;100.00;96377.75;5038774;28;20075;-75
2022/05/16 07:56:09;;;;;;;8.65;3.05;;;;;;;17.18;100.00;96381.03;5038302;28;20576;-75
2022/05/16 07:58:35;;;;;;;6.78;3.17;;;;;;;17.10;100.00;96361.75;5043964;28;20478;-75
2022/05/16 08:01:01;;;;;;;6.88;3.05;;;;;;;17.07;100.00;96378.94;5025583;28;20068;-75
2022/05/16 08:03:29;;;;;;;8.57;3.20;;;;;;;17.03;100.00;96374.19;5043152;28;20029;-75
2022/05/16 08:05:55;;;;;;;6.20;3.10;;;;;;;17.04;100.00;96367.88;5047357;28;20105;-75
2022/05/16 08:11:06;;;;;;;5.97;3.65;;;;;;;17.24;100.00;96376.78;5037543;28;20033;-75
2022/05/16 08:13:32;;;;;;;9.73;3.95;;;;;;;17.42;100.00;96366.41;5012602;28;20032;-76
2022/05/16 08:15:58;;;;;;;6.55;3.30;;;;;;;17.55;100.00;96376.28;5044002;28;20508;-75
2022/05/16 08:18:25;;;;;;;6.32;3.88;;;;;;;17.70;100.00;96372.63;5023137;28;20113;-75
2022/05/16 08:20:51;;;;;;;4.90;3.28;;;;;;;17.77;100.00;96377.00;5025282;28;20548;-76
2022/05/16 08:23:21;;;;;;;4.78;2.67;;;;;;;17.75;100.00;96388.81;5021798;28;20051;-75
2022/05/16 08:25:47;;;;;;;6.82;2.80;;;;;;;17.81;100.00;96388.06;5047643;28;20053;-75
2022/05/16 08:28:15;;;;;;;9.15;3.90;;;;;;;17.81;100.00;96391.53;5027559;28;20396;-76
2022/05/16 08:30:41;;;;;;;5.22;2.53;;;;;;;17.83;100.00;96388.66;5033856;28;20041;-75
2022/05/16 08:33:07;;;;;;;4.63;2.95;;;;;;;17.87;100.00;96392.56;5041891;28;20040;-76
2022/05/16 08:35:33;;;;;;;5.03;2.90;;;;;;;17.73;100.00;96390.84;5024140;28;20029;-75
2022/05/16 08:40:58;;;;;;;7.15;2.90;;;;;;;18.22;100.00;96390.59;5038228;28;20100;-75
2022/05/16 08:43:24;;;;;;;5.68;3.17;;;;;;;18.45;100.00;96397.38;5016477;28;20040;-75
2022/05/16 08:46:22;;;;;;;7.65;3.08;;;;;;;18.74;100.00;96396.13;5041573;28;20030;-76
2022/05/16 08:48:52;;;;;;;5.65;3.03;;;;;;;19.09;100.00;96394.03;5032163;28;20071;-76
2022/05/16 08:51:31;;;;;;;8.30;3.55;;;;;;;19.68;100.00;96394.88;5039163;28;20047;-76
2022/05/16 08:54:03;;;;;;;4.70;3.05;;;;;;;20.01;100.00;96392.03;5029976;28;20057;-75
2022/05/16 08:56:33;;;;;;;5.70;3.08;;;;;;;20.18;100.00;96395.00;5053429;28;20025;-75
2022/05/16 08:59:04;;;;;;;7.13;3.03;;;;;;;20.25;100.00;96398.44;5034512;28;20033;-75
2022/05/16 09:01:38;;;;;;;9.98;3.38;;;;;;;20.08;100.00;96400.00;5047159;28;20120;-75
2022/05/16 09:04:12;;;;;;;6.70;3.00;;;;;;;19.86;100.00;96403.03;5022144;28;20228;-75
2022/05/16 09:06:40;;;;;;;5.43;3.00;;;;;;;19.68;100.00;96394.88;5033025;28;20065;-76
2022/05/16 09:09:12;;;;;;;5.82;2.72;;;;;;;19.62;100.00;96388.53;5020781;28;20048;-75
2022/05/16 09:11:55;;;;;;;9.00;3.40;;;;;;;19.75;100.00;96395.66;5019725;28;20054;-75
2022/05/16 09:14:24;;;;;;;9.23;3.13;;;;;;;20.19;100.00;96388.66;5032239;28;20246;-75
2022/05/16 09:16:53;;;;;;;8.30;3.55;;;;;;;19.93;100.00;96394.97;5011381;28;20033;-75
2022/05/16 09:19:37;;;;;;;5.90;3.22;;;;;;;20.20;100.00;96387.63;5040677;28;20047;-75
2022/05/16 09:22:15;;;;;;;6.07;2.90;;;;;;;20.76;98.22;96377.94;5046887;28;20053;-75
2022/05/16 09:24:50;;;;;;;4.80;2.80;;;;;;;20.84;99.05;96383.84;5027561;28;20132;-75
2022/05/16 09:30:27;;;;;;;4.78;2.47;;;;;;;21.68;90.65;96386.03;5031597;28;20044;-76
2022/05/16 09:33:11;;;;;;;5.35;2.53;;;;;;;22.20;87.07;96379.16;5024355;28;20061;-75
2022/05/16 09:35:37;;;;;;;5.88;2.72;;;;;;;22.11;81.56;96377.81;5035461;28;20047;-75
2022/05/16 09:38:04;;;;;;;4.28;2.30;;;;;;;22.31;80.44;96375.69;5035644;28;20041;-78
2022/05/16 09:41:07;;;;;;;4.05;2.15;;;;;;;22.47;79.17;96373.41;5019472;28;20045;-75
2022/05/16 09:44:22;;;;;;;3.97;2.50;;;;;;;22.81;78.10;96375.28;5043120;28;20032;-77
2022/05/16 09:46:49;;;;;;;4.90;2.70;;;;;;;22.31;80.83;96380.25;5026389;28;20077;-77
2022/05/16 09:49:26;;;;;;;4.65;2.63;;;;;;;22.00;83.22;96383.94;5043296;28;20087;-77
2022/05/16 09:51:58;;;;;;;3.58;2.25;;;;;;;21.76;87.58;96385.72;5051549;28;20036;-77
2022/05/16 09:54:28;;;;;;;4.90;2.38;;;;;;;21.78;88.68;96397.84;5025692;28;20057;-77
2022/05/16 09:57:20;;;;;;;6.28;2.92;;;;;;;21.83;88.27;96399.81;5022713;28;20059;-77
2022/05/16 09:59:53;;;;;;;4.60;2.80;;;;;;;21.47;90.10;96398.84;5043454;28;20585;-75
2022/05/16 10:02:22;;;;;;;;;;;;;;;21.31;91.27;96402.09;5014507;28;20040;-75
2022/05/16 10:04:52;;;;;;;6.18;2.75;;;;;;;21.13;93.09;96406.38;5036800;28;19956;-75
2022/05/16 10:07:26;;;;;;;6.32;2.90;;;;;;;21.31;92.09;96400.22;5034468;28;20101;-75
2022/05/16 10:09:53;;;;;;;5.68;2.80;;;;;;;21.36;90.23;96400.41;5035217;28;20037;-75
2022/05/16 10:12:21;;;;;;;7.28;2.85;;;;;;;21.61;89.16;96404.84;5034684;28;20448;-75
2022/05/16 10:14:48;;;;;;;6.85;2.63;;;;;;;21.96;86.65;96409.53;5035577;28;20056;-75
2022/05/16 10:17:42;;;;;;;5.40;2.83;;;;;;;22.03;88.56;96399.56;5039950;28;20033;-75
2022/05/16 10:20:19;;;;;;;6.20;2.65;;;;;;;21.94;86.37;96403.63;5042811;28;20045;-75
2022/05/16 10:22:45;;;;;;;5.25;2.70;;;;;;;22.04;83.68;96402.03;5028689;28;20042;-74
2022/05/16 10:25:18;;;;;;;5.97;2.72;;;;;;;21.89;79.37;96394.38;5035008;28;20041;-74
2022/05/16 10:27:48;;;;;;;7.32;3.40;;;;;;;21.64;79.23;96393.69;5036483;28;20068;-75
2022/05/16 10:30:21;;;;;;;4.95;2.78;;;;;;;21.47;80.78;96396.16;5039927;28;20082;-75
2022/05/16 10:35:38;;;;;;;5.55;3.33;;;;;;;21.92;82.30;96386.94;5043980;28;19921;-75
2022/05/16 10:38:13;;;;;;;5.90;3.20;;;;;;;22.01;81.10;96385.59;5017244;28;20033;-74
2022/05/16 10:40:47;;;;;;;9.38;3.65;;;;;;;21.88;79.34;96382.03;5025929;28;20087;-75
2022/05/16 10:43:30;;;;;;;7.60;3.30;;;;;;;22.11;80.42;96391.22;5030351;28;20041;-76
2022/05/16 10:46:03;;;;;;;4.88;3.00;;;;;;;22.09;80.07;96388.75;5029536;28;20040;-77
2022/05/16 10:48:41;;;;;;;10.05;3.22;;;;;;;22.12;76.46;96387.47;5031332;28;20029;-75
2022/05/16 10:51:26;;;;;;;5.05;3.10;;;;;;;22.92;73.83;96386.25;5029871;28;20045;-76
2022/05/16 10:54:13;;;;;;;7.93;3.75;;;;;;;22.93;74.07;96385.22;5031086;28;20094;-75
2022/05/16 10:57:07;;;;;;;7.40;3.70;;;;;;;23.39;72.58;96386.22;5043566;28;20032;-75
2022/05/16 10:59:51;;;;;;;;;;;;;;;22.84;71.61;96379.38;5029673;28;20525;-75
2022/05/16 11:02:43;;;;;;;4.88;2.75;;;;;;;22.73;75.19;96378.28;5037716;28;19928;-75
2022/05/16 11:05:26;;;;;;;9.35;3.70;;;;;;;22.76;73.88;96377.84;5024119;28;20136;-74
2022/05/16 11:08:18;;;;;;;5.80;3.40;;;;;;;22.59;75.55;96374.22;5038159;28;20052;-75
2022/05/16 11:10:58;;;;;;;5.72;2.92;;;;;;;22.41;76.44;96382.34;5007825;28;20487;-74
2022/05/16 11:13:36;;;;;;;7.05;3.03;;;;;;;22.48;76.30;96383.06;5016303;28;20069;-75
2022/05/16 11:16:18;;;;;;;5.47;3.13;;;;;;;22.46;74.04;96382.47;5023139;28;20041;-74
2022/05/16 11:18:56;;;;;;;6.63;3.03;;;;;;;22.65;73.23;96378.66;5026168;28;20112;-76
2022/05/16 11:21:33;;;;;;;5.70;3.03;;;;;;;22.97;70.11;96378.31;5031598;28;20120;-75
2022/05/16 11:24:05;;;;;;;5.63;2.90;;;;;;;23.25;69.24;96374.94;5038835;28;20046;-74
2022/05/16 11:26:43;;;;;;;12.23;3.55;;;;;;;23.49;74.32;96381.88;5027346;28;20418;-75
2022/05/16 11:29:18;;;;;;;5.93;3.25;;;;;;;23.23;70.60;96383.22;5044713;28;20040;-75
2022/05/16 11:32:17;;;;;;;7.13;3.35;;;;;;;23.09;72.14;96379.16;5018079;28;20041;-75
2022/05/16 11:35:00;;;;;;;5.80;3.20;;;;;;;22.81;74.18;96377.16;5010674;28;20553;-75
2022/05/16 11:37:32;;;;;;;6.32;3.05;;;;;;;22.76;76.50;96375.16;5032629;28;20078;-75
2022/05/16 11:40:13;;;;;;;5.03;3.20;;;;;;;22.73;78.95;96369.44;5037333;28;20036;-75
2022/05/16 11:42:50;;;;;;;7.20;3.10;;;;;;;22.71;76.04;96366.19;5053429;28;20082;-75
2022/05/16 11:45:24;;;;;;;7.07;3.20;;;;;;;22.46;75.45;96364.53;5044203;28;20563;-75
2022/05/16 11:48:10;;;;;;;6.75;2.92;;;;;;;22.71;75.24;96358.97;5042762;28;20033;-79
2022/05/16 11:50:55;;;;;;;4.90;2.95;;;;;;;22.58;75.43;96368.03;5033476;28;20045;-75
2022/05/16 11:53:30;;;;;;;5.57;3.15;;;;;;;22.59;76.21;96371.53;5047274;28;20048;-75
2022/05/16 12:01:39;;;;;;;5.00;3.20;;;;;;;21.86;82.38;96377.94;5028557;28;20044;-76
2022/05/16 12:04:13;;;;;;;10.25;3.92;;;;;;;21.97;86.79;96414.69;5027642;28;20034;-75
2022/05/16 12:06:53;;;;;;;10.68;2.92;;;;;;;21.08;82.39;96408.06;5019815;28;20037;-76
2022/05/16 12:09:23;;;;;;;8.32;2.80;;;;;;;19.78;90.74;96409.44;5043091;28;20048;-75
2022/05/16 12:11:58;;;;;;;11.80;4.22;;;;;;;18.56;100.00;96397.56;5025547;28;20029;-75
2022/05/16 12:14:41;;;;;;;15.00;6.20;;;;;;;17.36;100.00;96432.84;5028447;28;20100;-76
2022/05/16 12:17:13;;;;;;;17.98;7.15;;;;;;;16.98;100.00;96448.38;5048270;28;20037;-76
2022/05/16 12:19:42;;;;;;;18.70;6.80;;;;;;;16.81;100.00;96438.03;5035119;28;20187;-76
2022/05/16 12:22:11;;;;;;;14.02;6.05;;;;;;;16.82;100.00;96439.66;5018712;28;20518;-75